Flight Track Log - Related Links

Times and Time Zones

All times are in EDT time to prevent confusion due to time zone crossing. See the CTL22 flight status page for this flight to view local times or setup timezone preferences in your user account.

Time Position Orientation Groundspeed Altitude Reporting Facility
EDT Latitude Longitude Course Direction KTS MPH feet Rate Location/Type
Wed 08:07:21 PM 42.2197 -85.4044 115° Southeast 151 174 4,000  Level Chicago Center
Wed 08:08:23 PM 42.1964 -85.3394 116° Southeast 159 183 4,900 774 Climbing Chicago Center
Wed 08:09:25 PM 42.1750 -85.2867 119° Southeast 160 184 5,600 634 Climbing Chicago Center
Wed 08:10:00 PM 42.1676 -85.1554 103° East  Level Estimated
Wed 08:10:26 PM 42.1533 -85.2347 119° Southeast 159 183 6,200  Level Chicago Center
Wed 08:11:00 PM 42.1564 -85.0895 103° East  Level Estimated
Wed 08:11:28 PM 42.1328 -85.1808 117° Southeast 160 184 6,700  Level Chicago Center
Wed 08:12:30 PM 42.1103 -85.1272 119° Southeast 163 188 7,000 145 Climbing Chicago Center
Wed 08:13:32 PM 42.0867 -85.0667 118° Southeast 174 200 7,000 48 Level Chicago Center
Wed 08:14:34 PM 42.0586 -84.9919 117° Southeast 184 212 7,100  Climbing Chicago Center
Wed 08:15:36 PM 42.0342 -84.9311 118° Southeast 185 213 7,000 -48 Descending Chicago Center
Wed 08:16:38 PM 42.0106 -84.8683 117° Southeast 186 214 7,000 -48 Level Chicago Center
Wed 08:17:40 PM 41.9892 -84.8042 114° Southeast 187 215 6,900  Descending Chicago Center
Wed 08:18:42 PM 41.9658 -84.7411 116° Southeast 188 216 7,000 48 Climbing Chicago Center
Wed 08:19:44 PM 41.9408 -84.6800 119° Southeast 187 215 7,000  Level Chicago Center
Wed 08:20:46 PM 41.9153 -84.6186 119° Southeast 187 215 7,000  Level Chicago Center
Wed 08:21:48 PM 41.8872 -84.5411 116° Southeast 192 221 7,000  Level Chicago Center
Wed 08:22:50 PM 41.8658 -84.4772 114° Southeast 190 219 7,000  Level Chicago Center
Wed 08:23:52 PM 41.8392 -84.4150 120° Southeast 190 219 7,000  Level Chicago Center
Wed 08:24:54 PM 41.8139 -84.3531 119° Southeast 189 217 7,000  Level Chicago Center
Wed 08:25:56 PM 41.7908 -84.2869 115° Southeast 192 221 7,000 48 Level Chicago Center
Wed 08:26:58 PM 41.7669 -84.2250 117° Southeast 191 220 7,100  Climbing Chicago Center
Wed 08:28:00 PM 41.7400 -84.1481 115° Southeast 191 220 7,000 -97 Descending Chicago Center

Login

Don't have an account? Register now (free) for customized features, flight alerts, and more!